Time;durP1;ratioP1;P1;durP2;ratioP2;P2;SDS_P1;SDS_P2;PMS_P1;PMS_P2;Temp;Humidity;BMP_temperature;BMP_pressure;BME280_temperature;BME280_humidity;BME280_pressure;Samples;Min_cycle;Max_cycle;Signal;HPM_P1;HPM_P2
2021/03/30 00:00:28;;;;;;;15.07;6.22;;;8.50;99.90;;;;;;5097191;27;20093;-66
2021/03/30 00:02:54;;;;;;;13.43;5.60;;;8.40;99.90;;;;;;5094861;27;20051;-66
2021/03/30 00:05:21;;;;;;;13.95;5.95;;;8.30;99.90;;;;;;5099108;27;20047;-65
2021/03/30 00:07:47;;;;;;;;;;;8.40;99.90;;;;;;5097152;27;20094;-65
2021/03/30 00:10:17;;;;;;;14.38;6.15;;;8.50;99.90;;;;;;5096897;27;19963;-65
2021/03/30 00:12:44;;;;;;;15.45;6.10;;;8.50;99.90;;;;;;5097113;27;20085;-65
2021/03/30 00:15:13;;;;;;;15.30;6.30;;;8.50;99.90;;;;;;5097465;27;20141;-66
2021/03/30 00:17:40;;;;;;;14.18;6.05;;;8.30;99.90;;;;;;5099074;27;20095;-65
2021/03/30 00:20:10;;;;;;;11.30;5.72;;;8.10;99.90;;;;;;5097504;27;20058;-65
2021/03/30 00:22:36;;;;;;;12.82;5.85;;;8.00;99.90;;;;;;5095394;27;20065;-65
2021/03/30 00:25:04;;;;;;;12.82;5.80;;;8.00;99.90;;;;;;5095572;27;20090;-66
2021/03/30 00:27:30;;;;;;;21.83;6.82;;;8.00;99.90;;;;;;5099643;27;20043;-66
2021/03/30 00:29:57;;;;;;;;;;;8.00;99.90;;;;;;5099489;27;20122;-65
2021/03/30 00:32:24;;;;;;;16.67;6.57;;;8.20;99.90;;;;;;5096543;27;20076;-65
2021/03/30 00:34:50;;;;;;;;;;;8.20;99.90;;;;;;5096018;27;20522;-65
2021/03/30 00:37:17;;;;;;;13.50;6.15;;;8.10;99.90;;;;;;5096896;27;19923;-65
2021/03/30 00:39:43;;;;;;;12.77;6.35;;;8.00;99.90;;;;;;5093962;27;20055;-65
2021/03/30 00:42:09;;;;;;;;;;;8.00;99.90;;;;;;5095807;27;20054;-65
2021/03/30 00:44:36;;;;;;;16.38;5.85;;;7.90;99.90;;;;;;5095996;27;20006;-65
2021/03/30 00:47:04;;;;;;;11.93;5.83;;;7.80;99.90;;;;;;5097132;27;20067;-65
2021/03/30 00:49:33;;;;;;;13.27;6.13;;;7.80;99.90;;;;;;5096556;27;20043;-65
2021/03/30 00:52:00;;;;;;;17.30;6.18;;;7.80;99.90;;;;;;5097901;27;20256;-65
2021/03/30 00:54:27;;;;;;;14.50;6.03;;;7.70;99.90;;;;;;5095344;27;20059;-65
2021/03/30 00:56:54;;;;;;;12.68;5.90;;;7.70;99.90;;;;;;5098097;27;20496;-65
2021/03/30 00:59:22;;;;;;;14.17;6.20;;;7.70;99.90;;;;;;5098888;27;20440;-66
2021/03/30 01:01:49;;;;;;;15.48;5.45;;;7.60;99.90;;;;;;5097159;27;20100;-66
2021/03/30 01:04:16;;;;;;;;;;;7.60;99.90;;;;;;5095268;27;20548;-66
2021/03/30 01:06:42;;;;;;;13.18;6.18;;;7.70;99.90;;;;;;5095792;27;20368;-65
2021/03/30 01:09:21;;;;;;;18.00;5.97;;;7.70;99.90;;;;;;5096151;27;20434;-65
2021/03/30 01:12:04;;;;;;;14.17;6.47;;;7.70;99.90;;;;;;5096603;27;20055;-65
2021/03/30 01:14:45;;;;;;;13.73;5.90;;;7.70;99.90;;;;;;5096466;27;20476;-66
2021/03/30 01:17:21;;;;;;;16.80;6.10;;;7.50;99.90;;;;;;5095655;27;20044;-65
2021/03/30 01:20:04;;;;;;;16.40;6.67;;;7.50;99.90;;;;;;5096207;27;20120;-66
2021/03/30 01:23:13;;;;;;;15.03;7.43;;;7.40;99.90;;;;;;5095736;27;20748;-66
2021/03/30 01:25:47;;;;;;;14.47;5.60;;;7.40;99.90;;;;;;5096225;27;20070;-66
2021/03/30 01:28:25;;;;;;;14.03;6.40;;;7.30;99.90;;;;;;5097015;27;20423;-66
2021/03/30 01:30:53;;;;;;;12.53;6.00;;;7.20;99.90;;;;;;5093690;27;20412;-66
2021/03/30 01:33:24;;;;;;;16.47;6.83;;;7.30;99.90;;;;;;5094382;27;20051;-66
2021/03/30 01:35:53;;;;;;;15.07;6.73;;;7.30;99.90;;;;;;5096866;27;20464;-66
2021/03/30 01:38:21;;;;;;;12.50;7.00;;;7.30;99.90;;;;;;5096646;27;20075;-66
2021/03/30 01:40:52;;;;;;;17.17;7.20;;;7.20;99.90;;;;;;5096446;27;20058;-66
2021/03/30 01:43:21;;;;;;;16.90;7.23;;;7.20;99.90;;;;;;5093582;27;20051;-66
2021/03/30 01:45:53;;;;;;;15.50;6.90;;;7.20;99.90;;;;;;5093711;27;20062;-66
2021/03/30 01:48:21;;;;;;;14.80;6.63;;;7.10;99.90;;;;;;5098514;27;20051;-66
2021/03/30 01:50:49;;;;;;;14.23;6.63;;;7.10;99.90;;;;;;5092213;27;20051;-65
2021/03/30 01:53:17;;;;;;;15.57;6.43;;;7.00;99.90;;;;;;5095994;27;20062;-66
2021/03/30 01:55:45;;;;;;;13.17;6.90;;;7.00;99.90;;;;;;5094856;27;20055;-65
2021/03/30 01:58:15;;;;;;;16.60;6.90;;;7.00;99.90;;;;;;5095153;27;20059;-65
2021/03/30 02:00:42;;;;;;;12.23;6.67;;;6.80;99.90;;;;;;5096324;27;20604;-65
2021/03/30 02:03:12;;;;;;;12.87;5.97;;;6.80;99.90;;;;;;5092387;27;20043;-65
2021/03/30 02:05:39;;;;;;;19.33;7.97;;;6.70;99.90;;;;;;5094798;27;20051;-65
2021/03/30 02:08:08;;;;;;;17.47;6.90;;;6.80;99.90;;;;;;5096242;27;20199;-66
2021/03/30 02:10:43;;;;;;;19.03;7.20;;;6.90;99.90;;;;;;5094328;27;20504;-65
2021/03/30 02:13:12;;;;;;;14.83;6.67;;;6.80;99.90;;;;;;5093925;27;21042;-65
2021/03/30 02:15:39;;;;;;;22.00;6.77;;;6.60;99.90;;;;;;5096986;27;20054;-65
2021/03/30 02:18:08;;;;;;;18.03;7.27;;;6.50;99.90;;;;;;5096301;27;20043;-65
2021/03/30 02:20:38;;;;;;;21.53;6.90;;;6.50;99.90;;;;;;5098645;27;20142;-65
2021/03/30 02:23:10;;;;;;;15.83;7.73;;;6.40;99.90;;;;;;5093442;27;20051;-65
2021/03/30 02:25:39;;;;;;;14.13;6.57;;;6.50;99.90;;;;;;5094948;27;20063;-65
2021/03/30 02:28:12;;;;;;;12.30;6.57;;;6.40;99.90;;;;;;5097051;27;20526;-65
2021/03/30 02:30:40;;;;;;;14.13;5.90;;;6.40;99.90;;;;;;5098001;27;20054;-65
2021/03/30 02:33:09;;;;;;;13.90;6.57;;;6.50;99.90;;;;;;5091037;27;20151;-65
2021/03/30 02:35:37;;;;;;;13.93;6.80;;;6.50;99.90;;;;;;5095545;28;20083;-65
2021/03/30 02:38:05;;;;;;;12.77;6.27;;;6.40;99.90;;;;;;5098625;28;20515;-65
2021/03/30 02:40:32;;;;;;;16.53;7.07;;;6.50;99.90;;;;;;5098007;28;20463;-65
2021/03/30 02:43:00;;;;;;;13.50;6.90;;;6.40;99.90;;;;;;5097298;28;20048;-65
2021/03/30 02:45:28;;;;;;;18.87;8.33;;;6.40;99.90;;;;;;5097495;28;20079;-65
2021/03/30 02:47:58;;;;;;;15.30;7.10;;;6.30;99.90;;;;;;5097966;28;20083;-65
2021/03/30 02:50:26;;;;;;;15.53;7.23;;;6.30;99.90;;;;;;5097930;28;20052;-65
2021/03/30 02:52:55;;;;;;;19.00;6.53;;;6.30;99.90;;;;;;5096213;28;20469;-65
2021/03/30 02:55:23;;;;;;;15.50;6.63;;;6.30;99.90;;;;;;5094314;28;20055;-65
2021/03/30 02:57:50;;;;;;;16.17;7.00;;;6.30;99.90;;;;;;5095650;28;20424;-65
2021/03/30 03:00:18;;;;;;;18.80;7.30;;;6.30;99.90;;;;;;5096831;28;20047;-65
2021/03/30 03:02:47;;;;;;;14.23;6.77;;;6.40;99.90;;;;;;5091735;28;20048;-65
2021/03/30 03:05:14;;;;;;;15.57;7.00;;;6.30;99.90;;;;;;5094045;28;20067;-65
2021/03/30 03:07:42;;;;;;;14.73;7.27;;;6.30;99.90;;;;;;5097847;28;20528;-65
2021/03/30 03:10:10;;;;;;;16.70;8.03;;;6.30;99.90;;;;;;5094228;28;20055;-65
2021/03/30 03:12:39;;;;;;;16.90;7.10;;;6.20;99.90;;;;;;5093928;28;20560;-65
2021/03/30 03:15:08;;;;;;;18.23;7.33;;;6.10;99.90;;;;;;5097062;28;20047;-65
2021/03/30 03:17:36;;;;;;;14.87;7.13;;;6.10;99.90;;;;;;5094379;28;20074;-65
2021/03/30 03:20:06;;;;;;;14.50;6.97;;;6.10;99.90;;;;;;5096605;28;20478;-65
2021/03/30 03:22:34;;;;;;;17.60;8.30;;;6.10;99.90;;;;;;5094753;28;20088;-65
2021/03/30 03:25:00;;;;;;;16.07;7.33;;;6.10;99.90;;;;;;5092179;28;20165;-65
2021/03/30 03:27:29;;;;;;;15.90;7.60;;;6.00;99.90;;;;;;5096099;28;20047;-65
2021/03/30 03:29:57;;;;;;;17.50;7.33;;;5.90;99.90;;;;;;5096469;28;20415;-65
2021/03/30 03:32:24;;;;;;;16.90;7.40;;;5.90;99.90;;;;;;5091718;28;20094;-65
2021/03/30 03:34:51;;;;;;;15.73;7.37;;;5.90;99.90;;;;;;5095534;28;20058;-65
2021/03/30 03:37:17;;;;;;;18.83;7.37;;;6.00;99.90;;;;;;5094548;28;20081;-65
2021/03/30 03:39:44;;;;;;;15.07;7.47;;;5.90;99.90;;;;;;5094168;28;20965;-65
2021/03/30 03:42:11;;;;;;;13.07;6.93;;;5.80;99.90;;;;;;5096200;27;20504;-65
2021/03/30 03:44:38;;;;;;;16.00;7.97;;;5.70;99.90;;;;;;5095205;27;20055;-65
2021/03/30 03:47:05;;;;;;;19.47;6.77;;;5.70;99.90;;;;;;5099852;27;20079;-65
2021/03/30 03:49:31;;;;;;;17.77;7.03;;;5.60;99.90;;;;;;5100174;27;20043;-65
2021/03/30 03:52:01;;;;;;;18.27;8.10;;;5.60;99.90;;;;;;5098241;27;20090;-65
2021/03/30 03:54:29;;;;;;;14.60;7.07;;;5.50;99.90;;;;;;5097128;27;20079;-65
2021/03/30 03:57:00;;;;;;;15.27;7.13;;;5.60;99.90;;;;;;5098015;27;20452;-65
2021/03/30 03:59:31;;;;;;;16.67;7.20;;;5.50;99.90;;;;;;5096496;27;20061;-65
2021/03/30 04:02:10;;;;;;;16.90;7.73;;;5.50;99.90;;;;;;5095460;27;20103;-65
2021/03/30 04:04:48;;;;;;;19.20;7.30;;;5.50;99.90;;;;;;5096570;27;20081;-65
2021/03/30 04:07:19;;;;;;;15.47;7.70;;;5.40;99.90;;;;;;5098106;27;20346;-65
2021/03/30 04:09:48;;;;;;;15.20;7.87;;;5.50;99.90;;;;;;5096414;27;20052;-65
2021/03/30 04:12:17;;;;;;;14.60;7.20;;;5.40;99.90;;;;;;5096109;27;20206;-65
2021/03/30 04:14:44;;;;;;;20.80;8.10;;;5.40;99.90;;;;;;5095938;27;20155;-65
2021/03/30 04:17:15;;;;;;;19.13;7.20;;;5.40;99.90;;;;;;5097018;27;20058;-65
2021/03/30 04:19:41;;;;;;;18.83;6.97;;;5.40;99.90;;;;;;5098704;27;20055;-65
2021/03/30 04:22:09;;;;;;;20.23;6.97;;;5.40;99.90;;;;;;5095658;27;20062;-65
2021/03/30 04:24:35;;;;;;;15.17;7.17;;;5.40;99.90;;;;;;5096233;27;20051;-65
2021/03/30 04:27:02;;;;;;;14.50;6.50;;;5.20;99.90;;;;;;5096247;27;20504;-65
2021/03/30 04:29:30;;;;;;;16.03;7.60;;;5.20;99.90;;;;;;5096507;27;20143;-65
2021/03/30 04:31:56;;;;;;;21.00;7.63;;;5.20;99.90;;;;;;5094412;27;20503;-65
2021/03/30 04:34:24;;;;;;;;;;;5.20;99.90;;;;;;5095500;27;20506;-65
2021/03/30 04:36:50;;;;;;;;;;;5.10;99.90;;;;;;5098642;27;19934;-66
2021/03/30 04:39:16;;;;;;;15.10;6.60;;;5.10;99.90;;;;;;5098090;27;19963;-66
2021/03/30 04:41:42;;;;;;;;;;;5.10;99.90;;;;;;5097406;27;20054;-66
2021/03/30 04:44:09;;;;;;;14.57;6.43;;;5.10;99.90;;;;;;5095573;27;20471;-66
2021/03/30 04:46:35;;;;;;;15.03;7.23;;;5.00;99.90;;;;;;5098605;27;20047;-65
2021/03/30 04:49:02;;;;;;;16.63;7.47;;;5.00;99.90;;;;;;5095545;27;20093;-65
2021/03/30 04:51:29;;;;;;;14.53;7.70;;;5.10;99.90;;;;;;5095716;27;20101;-65
2021/03/30 04:53:56;;;;;;;17.17;7.50;;;5.00;99.90;;;;;;5095290;27;20054;-65
2021/03/30 04:56:22;;;;;;;15.27;6.90;;;4.90;99.90;;;;;;5099161;27;20048;-65
2021/03/30 04:58:49;;;;;;;17.00;7.20;;;4.90;99.90;;;;;;5097189;27;20828;-65
2021/03/30 05:01:16;;;;;;;13.70;6.37;;;4.80;99.90;;;;;;5095922;27;20063;-65
2021/03/30 05:03:42;;;;;;;14.27;7.03;;;4.90;99.90;;;;;;5095931;27;20510;-65
2021/03/30 05:06:09;;;;;;;20.57;7.70;;;5.00;99.90;;;;;;5093416;27;20051;-65
2021/03/30 05:08:37;;;;;;;15.67;7.53;;;5.00;99.90;;;;;;5097369;27;20507;-65
2021/03/30 05:11:04;;;;;;;16.13;7.07;;;4.90;99.90;;;;;;5096587;27;20059;-65
2021/03/30 05:13:30;;;;;;;19.47;8.17;;;4.90;99.90;;;;;;5095765;27;20048;-65
2021/03/30 05:15:57;;;;;;;17.87;7.70;;;5.00;99.90;;;;;;5095561;27;20714;-65
2021/03/30 05:18:23;;;;;;;19.87;7.33;;;5.00;99.90;;;;;;5098552;27;20051;-65
2021/03/30 05:20:50;;;;;;;19.67;7.30;;;5.00;99.90;;;;;;5095355;27;20108;-65
2021/03/30 05:23:16;;;;;;;18.70;7.80;;;4.90;99.90;;;;;;5095059;27;20059;-65
2021/03/30 05:25:44;;;;;;;16.10;7.20;;;4.90;99.90;;;;;;5097726;27;20567;-65
2021/03/30 05:28:10;;;;;;;21.27;7.90;;;4.90;99.90;;;;;;5097418;27;20067;-65
2021/03/30 05:30:36;;;;;;;17.33;7.27;;;4.90;99.90;;;;;;5097070;27;20059;-65
2021/03/30 05:33:04;;;;;;;17.27;7.23;;;5.00;99.90;;;;;;5094539;27;20051;-65
2021/03/30 05:35:30;;;;;;;16.37;7.90;;;5.00;99.90;;;;;;5096520;27;20051;-65
2021/03/30 05:37:57;;;;;;;13.20;6.57;;;5.00;99.90;;;;;;5098157;27;20083;-66
2021/03/30 05:40:23;;;;;;;13.27;7.30;;;5.10;99.90;;;;;;5095063;27;20412;-65
2021/03/30 05:42:51;;;;;;;14.90;6.73;;;5.10;99.90;;;;;;5097194;27;20043;-65
2021/03/30 05:45:19;;;;;;;20.30;6.90;;;5.10;99.90;;;;;;5100909;27;20096;-65
2021/03/30 05:47:48;;;;;;;20.40;7.43;;;5.10;99.90;;;;;;5100693;27;20055;-65
2021/03/30 05:50:17;;;;;;;15.07;7.73;;;5.20;99.90;;;;;;5099977;27;20101;-65
2021/03/30 05:52:47;;;;;;;15.93;8.37;;;5.30;99.90;;;;;;5100297;27;20077;-65
2021/03/30 05:55:22;;;;;;;16.10;7.40;;;5.40;99.90;;;;;;5100339;27;20063;-67
2021/03/30 05:57:52;;;;;;;16.57;8.00;;;5.40;99.90;;;;;;5101883;27;20138;-66
2021/03/30 06:00:22;;;;;;;16.93;7.10;;;5.30;99.90;;;;;;5099097;27;20412;-65
2021/03/30 06:02:50;;;;;;;18.03;7.53;;;5.40;99.90;;;;;;5096821;27;21115;-65
2021/03/30 06:05:17;;;;;;;18.00;7.07;;;5.50;99.90;;;;;;5097142;27;20051;-65
2021/03/30 06:07:44;;;;;;;17.93;6.60;;;5.50;99.90;;;;;;5099291;27;20261;-65
2021/03/30 06:10:13;;;;;;;19.10;8.13;;;5.60;99.90;;;;;;5099951;27;20446;-65
2021/03/30 06:12:40;;;;;;;17.83;7.60;;;5.70;99.90;;;;;;5096790;27;20130;-65
2021/03/30 06:15:10;;;;;;;12.87;6.57;;;5.60;99.90;;;;;;5099775;27;20094;-65
2021/03/30 06:17:41;;;;;;;16.40;6.60;;;5.60;99.90;;;;;;5098012;27;20063;-65
2021/03/30 06:20:10;;;;;;;19.43;7.30;;;5.70;99.90;;;;;;5098581;27;20047;-65
2021/03/30 06:22:49;;;;;;;12.20;6.10;;;5.70;99.90;;;;;;5098831;27;20313;-65
2021/03/30 06:25:44;;;;;;;13.70;6.13;;;5.80;99.90;;;;;;5100700;27;20055;-65
2021/03/30 06:28:15;;;;;;;17.90;6.80;;;5.90;99.90;;;;;;5100812;27;20087;-65
2021/03/30 06:30:57;;;;;;;11.77;6.50;;;5.90;99.90;;;;;;5099047;28;20173;-65
2021/03/30 06:33:24;;;;;;;21.90;7.97;;;6.00;99.90;;;;;;5101089;27;20515;-65
2021/03/30 06:35:51;;;;;;;18.37;6.47;;;6.10;99.90;;;;;;5100013;27;20087;-65
2021/03/30 06:38:18;;;;;;;20.03;7.30;;;6.10;99.90;;;;;;5101269;28;20082;-65
2021/03/30 06:40:46;;;;;;;13.93;7.00;;;6.20;99.90;;;;;;5101026;28;20098;-65
2021/03/30 06:46:19;;;;;;;22.20;8.10;;;6.20;99.90;;;;;;5050255;28;20082;-65
2021/03/30 06:48:45;;;;;;;20.30;7.73;;;6.40;99.90;;;;;;5086238;28;20527;-65
2021/03/30 06:51:19;;;;;;;24.47;8.07;;;6.50;99.90;;;;;;5094594;28;20104;-66
2021/03/30 06:53:45;;;;;;;20.87;8.57;;;6.70;99.90;;;;;;5095798;28;20117;-65
2021/03/30 06:56:12;;;;;;;23.47;7.40;;;6.80;99.90;;;;;;5095619;28;20051;-65
2021/03/30 06:58:58;;;;;;;20.43;7.93;;;6.90;99.90;;;;;;5096833;28;20054;-65
2021/03/30 07:01:27;;;;;;;20.70;7.40;;;7.00;99.90;;;;;;5095981;28;20241;-65
2021/03/30 07:03:55;;;;;;;19.93;7.53;;;7.10;99.90;;;;;;5089788;28;20398;-65
2021/03/30 07:06:22;;;;;;;19.27;7.67;;;7.10;99.90;;;;;;5091140;28;20545;-65
2021/03/30 07:08:50;;;;;;;19.33;7.70;;;7.20;99.90;;;;;;5087492;28;20434;-66
2021/03/30 07:11:17;;;;;;;22.63;7.63;;;7.30;99.90;;;;;;5090222;28;20051;-65
2021/03/30 07:13:44;;;;;;;25.20;7.90;;;7.40;99.90;;;;;;5088327;28;20134;-66
2021/03/30 07:16:15;;;;;;;14.13;6.20;;;7.60;99.90;;;;;;5092278;27;20128;-66
2021/03/30 07:18:44;;;;;;;17.13;7.00;;;7.70;99.90;;;;;;5092971;27;20484;-66
2021/03/30 07:21:13;;;;;;;17.73;6.93;;;7.70;99.90;;;;;;5099314;27;20055;-65
2021/03/30 07:23:45;;;;;;;22.87;8.13;;;7.80;99.90;;;;;;5090658;27;20108;-66
2021/03/30 07:26:15;;;;;;;25.80;8.33;;;7.90;99.90;;;;;;5087913;27;20130;-66
2021/03/30 07:28:46;;;;;;;24.92;7.38;;;8.00;99.90;;;;;;5100611;27;20441;-66
2021/03/30 07:31:16;;;;;;;21.93;8.60;;;8.20;99.90;;;;;;5106468;27;20051;-66
2021/03/30 07:33:47;;;;;;;19.05;6.60;;;8.30;99.90;;;;;;5098603;27;20051;-65
2021/03/30 07:36:18;;;;;;;17.85;6.80;;;8.50;99.90;;;;;;5102585;27;20058;-65
2021/03/30 07:38:46;;;;;;;21.42;7.05;;;8.60;99.90;;;;;;5104156;27;20625;-65
2021/03/30 07:41:13;;;;;;;14.13;6.38;;;8.80;99.90;;;;;;5100953;27;20105;-65
2021/03/30 07:43:41;;;;;;;24.90;9.55;;;8.80;99.90;;;;;;5099241;27;20052;-66
2021/03/30 07:46:08;;;;;;;27.38;10.15;;;8.90;99.90;;;;;;5101646;27;20092;-66
2021/03/30 07:48:38;;;;;;;27.08;9.30;;;9.00;99.90;;;;;;5099646;27;20504;-66
2021/03/30 07:51:07;;;;;;;24.13;8.95;;;9.10;99.90;;;;;;5098280;27;20043;-66
2021/03/30 07:53:38;;;;;;;15.48;6.93;;;9.20;99.90;;;;;;5101411;27;20051;-66
2021/03/30 07:56:05;;;;;;;20.60;6.80;;;9.30;99.90;;;;;;5098328;27;20553;-66
2021/03/30 07:58:45;;;;;;;18.75;7.15;;;9.50;99.90;;;;;;5100889;27;20439;-66
2021/03/30 08:01:12;;;;;;;24.27;6.68;;;9.70;99.90;;;;;;5097536;27;20051;-66
2021/03/30 08:03:40;;;;;;;14.90;6.90;;;9.90;99.90;;;;;;5091584;27;20059;-66
2021/03/30 08:06:34;;;;;;;15.82;6.90;;;10.10;99.90;;;;;;5093892;27;20043;-66
2021/03/30 08:09:04;;;;;;;15.35;6.97;;;10.30;99.90;;;;;;5095216;27;20086;-66
2021/03/30 08:11:49;;;;;;;18.50;7.05;;;10.40;99.90;;;;;;5094322;27;20059;-66
2021/03/30 08:14:38;;;;;;;17.80;7.55;;;10.40;99.90;;;;;;5099860;27;20916;-66
2021/03/30 08:17:24;;;;;;;18.83;7.35;;;10.90;99.90;;;;;;5096748;27;20051;-66
2021/03/30 08:19:58;;;;;;;21.92;7.60;;;11.20;99.90;;;;;;5095090;27;20067;-66
2021/03/30 08:22:40;;;;;;;17.25;8.05;;;11.70;99.90;;;;;;5094638;27;20073;-66
2021/03/30 08:25:07;;;;;;;17.27;7.38;;;12.20;99.90;;;;;;5094873;27;20047;-67
2021/03/30 08:27:38;;;;;;;18.70;8.00;;;12.80;99.90;;;;;;5100494;27;20468;-67
2021/03/30 08:30:13;;;;;;;19.65;7.50;;;13.90;99.90;;;;;;5094257;27;20719;-67
2021/03/30 08:32:44;;;;;;;17.27;7.53;;;15.10;99.90;;;;;;5093010;27;20051;-66
2021/03/30 08:35:13;;;;;;;21.48;8.00;;;15.90;99.90;;;;;;5093182;27;20047;-67
2021/03/30 08:37:41;;;;;;;16.58;7.45;;;17.00;99.90;;;;;;5097917;27;20047;-67
2021/03/30 08:40:53;;;;;;;13.27;7.25;;;18.00;99.90;;;;;;5093390;27;20405;-67
2021/03/30 08:43:21;;;;;;;20.08;6.95;;;18.80;97.80;;;;;;5029036;28;20497;-67
2021/03/30 08:46:02;;;;;;;16.42;7.05;;;20.10;93.30;;;;;;5083177;27;20047;-67
2021/03/30 08:48:34;;;;;;;15.07;7.20;;;21.20;86.50;;;;;;5098885;27;20053;-67
2021/03/30 08:51:02;;;;;;;16.30;7.53;;;22.10;79.20;;;;;;5098151;27;20051;-67
2021/03/30 08:53:32;;;;;;;15.30;7.97;;;22.50;74.20;;;;;;5093038;27;20867;-68
2021/03/30 08:56:00;;;;;;;18.00;7.70;;;23.20;69.20;;;;;;5095338;27;20422;-68
2021/03/30 08:58:28;;;;;;;13.15;7.70;;;23.70;66.30;;;;;;5096415;27;21225;-68
2021/03/30 09:00:56;;;;;;;18.63;8.27;;;24.10;63.00;;;;;;5096844;27;20079;-67
2021/03/30 09:03:28;;;;;;;15.25;8.35;;;24.70;59.10;;;;;;5093999;27;20079;-67
2021/03/30 09:05:54;;;;;;;17.13;8.07;;;24.70;58.80;;;;;;5095174;27;20070;-70
2021/03/30 09:08:37;;;;;;;15.48;7.72;;;25.00;57.20;;;;;;5093458;27;20047;-70
2021/03/30 09:11:21;;;;;;;17.85;7.88;;;25.70;56.30;;;;;;5091030;27;20054;-71
2021/03/30 09:14:01;;;;;;;12.93;7.07;;;26.00;54.00;;;;;;5094222;27;21345;-76
2021/03/30 09:16:28;;;;;;;15.25;7.88;;;26.90;52.90;;;;;;5094566;27;20635;-73
2021/03/30 09:19:24;;;;;;;19.20;8.82;;;27.50;52.10;;;;;;5096687;27;20079;-73
2021/03/30 09:21:58;;;;;;;18.25;8.00;;;28.10;50.30;;;;;;5096366;27;20051;-73
2021/03/30 09:24:35;;;;;;;21.50;8.43;;;28.60;49.20;;;;;;5096488;27;20059;-73
2021/03/30 09:27:02;;;;;;;;;;;28.30;49.00;;;;;;5096464;27;20070;-74
2021/03/30 09:29:31;;;;;;;19.67;8.20;;;28.40;47.10;;;;;;5098039;27;20392;-74
2021/03/30 09:31:59;;;;;;;18.15;8.75;;;28.00;47.60;;;;;;5092610;27;20051;-73
2021/03/30 09:34:26;;;;;;;14.63;8.68;;;28.00;48.10;;;;;;5094391;27;20526;-73
2021/03/30 09:36:52;;;;;;;12.48;8.30;;;28.70;47.00;;;;;;5096026;27;20058;-73
2021/03/30 09:39:21;;;;;;;13.68;8.23;;;29.60;46.30;;;;;;5096145;27;20644;-73
2021/03/30 09:41:49;;;;;;;17.60;8.80;;;29.30;45.50;;;;;;5092561;27;20050;-75
2021/03/30 09:44:17;;;;;;;18.35;8.57;;;29.10;45.30;;;;;;5094382;27;20116;-73
2021/03/30 09:46:46;;;;;;;15.52;8.43;;;28.90;45.60;;;;;;5094708;27;20095;-75
2021/03/30 09:49:13;;;;;;;16.95;8.80;;;29.70;45.50;;;;;;5094782;27;20096;-73
2021/03/30 09:51:42;;;;;;;18.48;9.13;;;30.20;44.50;;;;;;5098018;27;20408;-76
2021/03/30 09:54:27;;;;;;;14.77;9.52;;;30.90;44.30;;;;;;5096907;27;20058;-73
2021/03/30 09:57:12;;;;;;;13.73;8.65;;;31.60;42.70;;;;;;5095721;27;20102;-72
2021/03/30 09:59:39;;;;;;;18.15;8.75;;;31.20;42.10;;;;;;5096936;27;20184;-72
2021/03/30 10:02:05;;;;;;;15.48;8.68;;;30.80;41.70;;;;;;5093150;27;20051;-76
2021/03/30 10:04:35;;;;;;;18.45;9.75;;;31.60;41.60;;;;;;5094085;27;20090;-72
2021/03/30 10:07:14;;;;;;;12.68;8.05;;;31.50;40.80;;;;;;5097059;27;20425;-73
2021/03/30 10:10:01;;;;;;;14.60;8.73;;;32.00;42.00;;;;;;5095095;27;20055;-73
2021/03/30 10:12:32;;;;;;;16.83;9.40;;;31.80;40.80;;;;;;5095021;27;20066;-73
2021/03/30 10:14:59;;;;;;;12.75;8.40;;;32.30;40.40;;;;;;5096798;27;20165;-72
2021/03/30 10:17:27;;;;;;;16.65;9.25;;;31.60;41.10;;;;;;5095233;27;20507;-76
2021/03/30 10:19:55;;;;;;;15.07;8.57;;;31.30;40.80;;;;;;5100587;27;20055;-75
2021/03/30 10:22:27;;;;;;;13.38;8.93;;;32.00;39.90;;;;;;5096570;27;20090;-74
2021/03/30 10:25:14;;;;;;;16.45;7.95;;;32.60;39.60;;;;;;5097707;27;20051;-72
2021/03/30 10:27:50;;;;;;;13.80;8.05;;;32.70;39.50;;;;;;5096626;27;20055;-72
2021/03/30 10:30:18;;;;;;;13.55;7.53;;;32.80;38.60;;;;;;5097171;27;20043;-75
2021/03/30 10:32:48;;;;;;;15.32;7.95;;;32.20;38.70;;;;;;5097187;27;20048;-74
2021/03/30 10:35:15;;;;;;;12.93;7.68;;;33.10;38.70;;;;;;5099528;28;20411;-73
2021/03/30 10:37:42;;;;;;;16.73;8.43;;;34.20;37.70;;;;;;5100347;27;20576;-73
2021/03/30 10:40:09;;;;;;;16.25;7.72;;;34.10;37.50;;;;;;5098528;28;20074;-76
2021/03/30 10:42:39;;;;;;;14.27;7.95;;;34.60;36.60;;;;;;5098829;28;20051;-73
2021/03/30 10:45:09;;;;;;;13.75;7.45;;;34.80;35.90;;;;;;5099485;28;20063;-73
2021/03/30 10:47:37;;;;;;;16.50;7.75;;;34.90;36.90;;;;;;5098851;28;20138;-74
2021/03/30 10:50:07;;;;;;;16.42;8.15;;;35.10;36.20;;;;;;5094867;28;20051;-77
2021/03/30 10:52:35;;;;;;;13.30;7.90;;;35.10;35.90;;;;;;5099201;27;20124;-75
2021/03/30 10:55:03;;;;;;;17.55;8.20;;;33.40;36.90;;;;;;5099210;27;20062;-73
2021/03/30 10:57:33;;;;;;;15.50;7.53;;;33.90;37.50;;;;;;5092826;27;20051;-76
2021/03/30 11:00:00;;;;;;;12.45;7.25;;;34.60;36.90;;;;;;5100811;27;20055;-72
2021/03/30 11:02:27;;;;;;;16.50;8.00;;;34.60;37.10;;;;;;5101559;27;20054;-72
2021/03/30 11:04:54;;;;;;;16.50;7.38;;;34.70;36.40;;;;;;5099543;27;20067;-71
2021/03/30 11:07:21;;;;;;;13.77;8.10;;;34.80;36.00;;;;;;5094145;27;20082;-72
2021/03/30 11:09:47;;;;;;;14.50;7.93;;;34.70;36.00;;;;;;5100408;27;20066;-71
2021/03/30 11:12:14;;;;;;;16.08;8.77;;;34.70;35.50;;;;;;5101832;27;20062;-76
2021/03/30 11:14:41;;;;;;;11.73;7.00;;;34.80;34.80;;;;;;5100117;27;20096;-75
2021/03/30 11:17:08;;;;;;;16.00;8.45;;;34.60;35.20;;;;;;5100090;27;20051;-76
2021/03/30 11:19:35;;;;;;;13.40;7.53;;;34.70;35.50;;;;;;5091443;27;20102;-74
2021/03/30 11:22:04;;;;;;;16.33;8.30;;;34.60;35.00;;;;;;5097696;27;20246;-72
2021/03/30 11:24:32;;;;;;;22.38;8.18;;;34.80;35.30;;;;;;5096801;27;20054;-74
2021/03/30 11:26:59;;;;;;;16.88;7.70;;;33.80;35.00;;;;;;5098958;27;20055;-73
2021/03/30 11:29:29;;;;;;;11.43;7.43;;;34.40;34.80;;;;;;5098528;27;20614;-74
2021/03/30 11:32:18;;;;;;;17.65;7.45;;;34.90;34.20;;;;;;5099296;27;20432;-72
2021/03/30 11:34:48;;;;;;;16.27;7.50;;;34.90;34.10;;;;;;5099686;27;20093;-75
2021/03/30 11:39:57;;;;;;;16.95;7.75;;;34.90;34.00;;;;;;5093622;27;20515;-75
2021/03/30 11:42:25;;;;;;;14.50;7.68;;;34.60;33.90;;;;;;5093893;27;20100;-74
2021/03/30 11:44:52;;;;;;;14.95;7.47;;;35.00;34.40;;;;;;5093082;27;20043;-76
2021/03/30 11:47:18;;;;;;;15.57;7.10;;;35.10;32.70;;;;;;5095042;27;20043;-74
2021/03/30 11:49:46;;;;;;;12.43;6.40;;;35.10;33.10;;;;;;5090443;27;20048;-74
2021/03/30 11:52:12;;;;;;;10.20;4.82;;;34.90;31.30;;;;;;5085126;27;20443;-72
2021/03/30 11:54:41;;;;;;;7.68;4.38;;;33.00;30.70;;;;;;5085460;27;20089;-76
2021/03/30 11:57:08;;;;;;;6.43;3.60;;;32.70;30.60;;;;;;5084785;27;20480;-72
2021/03/30 11:59:34;;;;;;;9.93;4.97;;;31.20;30.20;;;;;;5085657;27;20522;-72
2021/03/30 12:02:01;;;;;;;8.32;3.38;;;30.80;30.60;;;;;;5088291;27;20256;-76
2021/03/30 12:04:27;;;;;;;10.27;4.25;;;30.00;30.10;;;;;;5089950;27;20097;-74
2021/03/30 12:06:55;;;;;;;9.05;4.57;;;30.30;30.70;;;;;;5096037;27;20484;-71
2021/03/30 12:09:21;;;;;;;7.97;3.78;;;30.00;31.50;;;;;;5096083;27;20152;-75
2021/03/30 12:11:48;;;;;;;8.77;3.92;;;30.90;30.90;;;;;;5090398;27;20059;-74
2021/03/30 12:14:16;;;;;;;10.27;4.13;;;30.90;30.60;;;;;;5086862;27;20051;-74
2021/03/30 12:16:43;;;;;;;8.07;3.80;;;31.20;30.80;;;;;;5089903;27;20492;-74
2021/03/30 12:19:10;;;;;;;8.85;4.20;;;30.80;30.30;;;;;;5086537;27;20565;-72
2021/03/30 12:21:36;;;;;;;7.93;3.40;;;31.40;30.10;;;;;;5087502;27;20051;-73
2021/03/30 12:24:04;;;;;;;8.05;3.28;;;30.80;29.90;;;;;;5088985;27;20567;-73
2021/03/30 12:26:31;;;;;;;8.80;3.67;;;32.10;30.00;;;;;;5089296;27;20164;-73
2021/03/30 12:29:00;;;;;;;7.47;4.13;;;32.60;30.20;;;;;;5096936;27;20086;-71
2021/03/30 12:31:26;;;;;;;8.70;3.88;;;33.20;30.50;;;;;;5098732;27;20061;-74
2021/03/30 12:33:53;;;;;;;6.50;2.92;;;32.00;28.40;;;;;;5093229;27;20123;-71
2021/03/30 12:36:19;;;;;;;7.15;2.80;;;31.30;28.70;;;;;;5095635;27;20071;-73
2021/03/30 12:38:46;;;;;;;6.75;3.38;;;31.50;28.30;;;;;;5090093;27;20058;-74
2021/03/30 12:41:13;;;;;;;5.97;3.13;;;31.40;28.10;;;;;;5093835;27;20447;-71
2021/03/30 12:43:40;;;;;;;7.32;3.60;;;31.30;28.30;;;;;;5093650;27;20234;-76
2021/03/30 12:46:06;;;;;;;8.45;4.22;;;31.00;29.00;;;;;;5092359;27;20576;-74
2021/03/30 12:48:33;;;;;;;10.68;4.03;;;29.80;29.30;;;;;;5096841;27;20073;-71
2021/03/30 12:50:59;;;;;;;7.88;3.67;;;30.10;29.70;;;;;;5094503;27;20172;-74
2021/03/30 12:53:26;;;;;;;8.68;3.88;;;29.10;30.20;;;;;;5093739;27;20055;-74
2021/03/30 12:55:52;;;;;;;5.05;2.78;;;30.60;30.00;;;;;;5094281;27;20407;-71
2021/03/30 12:58:20;;;;;;;7.63;3.33;;;31.10;29.30;;;;;;5092770;27;20051;-75
2021/03/30 13:00:47;;;;;;;6.00;3.03;;;30.40;28.80;;;;;;5093349;27;20822;-72
2021/03/30 13:03:13;;;;;;;7.80;3.58;;;30.20;28.90;;;;;;5090365;27;20104;-75